createdAt,value
2018-12-27T00:00:29.638Z,102227.07
2018-12-27T00:02:55.386Z,102227.02
2018-12-27T00:05:21.144Z,102228.36
2018-12-27T00:07:46.907Z,102219.79
2018-12-27T00:10:12.689Z,102218.36
2018-12-27T00:12:38.444Z,102222.33
2018-12-27T00:15:45.878Z,102221.55
2018-12-27T00:18:11.637Z,102214.48
2018-12-27T00:20:37.403Z,102209.17
2018-12-27T00:23:03.163Z,102212.16
2018-12-27T00:25:28.920Z,102209.17
2018-12-27T00:27:54.815Z,102211.44
2018-12-27T00:30:20.609Z,102204.88
2018-12-27T00:32:46.361Z,102198.73
2018-12-27T00:35:12.123Z,102192.91
2018-12-27T00:37:37.893Z,102195.05
2018-12-27T00:40:03.669Z,102197.09
2018-12-27T00:42:29.419Z,102195.55
2018-12-27T00:44:55.181Z,102193.83
2018-12-27T00:47:20.941Z,102191.88
2018-12-27T00:49:46.704Z,102192.50
2018-12-27T00:52:12.477Z,102187.48
2018-12-27T00:54:38.262Z,102191.21
2018-12-27T00:57:04.029Z,102185.43
2018-12-27T00:59:29.792Z,102183.94
2018-12-27T01:01:55.568Z,102188.53
2018-12-27T01:04:21.339Z,102189.37
2018-12-27T01:06:47.111Z,102182.25
2018-12-27T01:09:12.875Z,102186.12
2018-12-27T01:11:38.652Z,102182.57
2018-12-27T01:14:04.408Z,102171.15
2018-12-27T01:16:30.173Z,102169.39
2018-12-27T01:18:55.940Z,102175.86
2018-12-27T01:21:21.722Z,102166.46
2018-12-27T01:23:47.460Z,102163.21
2018-12-27T01:26:13.227Z,102160.47
2018-12-27T01:28:38.985Z,102149.02
2018-12-27T01:31:04.752Z,102152.42
2018-12-27T01:33:30.505Z,102146.54
2018-12-27T01:35:56.279Z,102150.72
2018-12-27T01:38:22.039Z,102141.53
2018-12-27T01:40:47.803Z,102146.19
2018-12-27T01:43:13.585Z,102154.15
2018-12-27T01:45:59.260Z,102152.81
2018-12-27T01:48:25.029Z,102152.81
2018-12-27T01:50:50.783Z,102151.32
2018-12-27T01:53:16.546Z,102152.51
2018-12-27T01:55:42.308Z,102148.28
2018-12-27T01:58:08.094Z,102150.96
2018-12-27T02:00:33.853Z,102147.20
2018-12-27T02:02:59.640Z,102153.05
2018-12-27T02:05:25.385Z,102150.72
2018-12-27T02:07:51.158Z,102154.59
2018-12-27T02:10:16.906Z,102155.02
2018-12-27T02:12:42.677Z,102147.89
2018-12-27T02:15:08.424Z,102148.03
2018-12-27T02:17:34.197Z,102147.95
2018-12-27T02:19:59.946Z,102144.78
2018-12-27T02:22:25.710Z,102150.98
2018-12-27T02:24:51.464Z,102149.02
2018-12-27T02:27:17.235Z,102152.27
2018-12-27T02:29:42.989Z,102146.91
2018-12-27T02:32:08.757Z,102146.39
2018-12-27T02:34:34.513Z,102148.45
2018-12-27T02:37:00.274Z,102142.52
2018-12-27T02:39:26.028Z,102143.02
2018-12-27T02:41:51.789Z,102139.74
2018-12-27T02:44:17.557Z,102137.06
2018-12-27T02:46:43.305Z,102126.69
2018-12-27T02:49:09.072Z,102127.67
2018-12-27T02:51:34.841Z,102119.80
2018-12-27T02:54:00.608Z,102121.83
2018-12-27T02:56:26.377Z,102118.16
2018-12-27T02:58:52.172Z,102116.55
2018-12-27T03:01:17.926Z,102110.94
2018-12-27T03:03:44.222Z,102113.92
2018-12-27T03:06:31.240Z,102111.30
2018-12-27T03:08:57.013Z,102107.27
2018-12-27T03:11:22.792Z,102100.00
2018-12-27T03:13:48.569Z,102095.70
2018-12-27T03:16:14.337Z,102091.38
2018-12-27T03:18:40.106Z,102098.28
2018-12-27T03:21:05.870Z,102094.39
2018-12-27T03:23:31.642Z,102093.77
2018-12-27T03:25:57.403Z,102091.81
2018-12-27T03:28:23.174Z,102091.44
2018-12-27T03:30:48.935Z,102090.93
2018-12-27T03:33:14.717Z,102085.47
2018-12-27T03:35:40.463Z,102085.27
2018-12-27T03:38:06.219Z,102080.41
2018-12-27T03:40:31.985Z,102080.05
2018-12-27T03:42:57.742Z,102076.95
2018-12-27T03:45:23.513Z,102076.09
2018-12-27T03:47:49.273Z,102073.34
2018-12-27T03:50:15.151Z,102074.69
2018-12-27T03:52:40.921Z,102070.16
2018-12-27T03:55:06.686Z,102068.34
2018-12-27T03:57:32.467Z,102075.16
2018-12-27T03:59:58.240Z,102072.57
2018-12-27T04:02:23.997Z,102067.21
2018-12-27T04:04:49.778Z,102065.00
2018-12-27T04:07:15.543Z,102061.97
2018-12-27T04:09:41.312Z,102054.38
2018-12-27T04:12:07.067Z,102055.35
2018-12-27T04:14:32.815Z,102052.11
2018-12-27T04:16:58.575Z,102046.95
2018-12-27T04:19:24.338Z,102056.90
2018-12-27T04:21:50.104Z,102043.34
2018-12-27T04:27:29.094Z,102046.23
2018-12-27T04:29:54.891Z,102056.59
2018-12-27T04:32:20.748Z,102049.69
2018-12-27T04:34:46.599Z,102047.72
2018-12-27T04:37:12.360Z,102048.70
2018-12-27T04:39:38.117Z,102053.92
2018-12-27T04:42:03.895Z,102051.89
2018-12-27T04:44:29.757Z,102046.38
2018-12-27T04:46:55.536Z,102050.77
2018-12-27T04:49:21.299Z,102049.58
2018-12-27T04:51:47.084Z,102046.89
2018-12-27T04:54:12.852Z,102039.89
2018-12-27T04:56:38.637Z,102040.75
2018-12-27T04:59:04.429Z,102036.84
2018-12-27T05:01:30.202Z,102034.67
2018-12-27T05:03:55.953Z,102022.10
2018-12-27T05:06:21.728Z,102020.49
2018-12-27T05:08:47.504Z,102026.00
2018-12-27T05:11:13.283Z,102026.63
2018-12-27T05:13:39.043Z,102024.31
2018-12-27T05:16:04.817Z,102027.83
2018-12-27T05:18:30.583Z,102023.53
2018-12-27T05:20:56.349Z,102022.40
2018-12-27T05:23:22.137Z,102028.42
2018-12-27T05:25:47.892Z,102028.42
2018-12-27T05:28:13.673Z,102026.63
2018-12-27T05:30:39.422Z,102031.48
2018-12-27T05:33:05.757Z,102032.35
2018-12-27T05:35:31.505Z,102036.22
2018-12-27T05:37:57.282Z,102035.03
2018-12-27T05:40:23.037Z,102038.19
2018-12-27T05:42:48.829Z,102047.22
2018-12-27T05:45:14.574Z,102045.19
2018-12-27T05:47:40.341Z,102042.57
2018-12-27T05:50:06.101Z,102042.00
2018-12-27T05:52:31.883Z,102047.22
2018-12-27T05:54:57.643Z,102046.53
2018-12-27T05:57:23.617Z,102052.38
2018-12-27T05:59:49.378Z,102052.73
2018-12-27T06:02:15.163Z,102053.39
2018-12-27T06:04:40.917Z,102060.72
2018-12-27T06:07:06.673Z,102053.03
2018-12-27T06:09:32.449Z,102059.02
2018-12-27T06:11:58.227Z,102048.65
2018-12-27T06:14:24.012Z,102046.95
2018-12-27T06:16:49.784Z,102042.66
2018-12-27T06:19:15.552Z,102037.45
2018-12-27T06:21:41.326Z,102038.84
2018-12-27T06:24:07.102Z,102038.19
2018-12-27T06:26:32.880Z,102038.34
2018-12-27T06:28:58.659Z,102029.58
2018-12-27T06:31:24.412Z,102037.56
2018-12-27T06:33:50.184Z,102048.65
2018-12-27T06:36:15.951Z,102048.59
2018-12-27T06:38:41.707Z,102045.70
2018-12-27T06:41:07.463Z,102045.76
2018-12-27T06:43:33.247Z,102043.64
2018-12-27T06:45:59.020Z,102038.13
2018-12-27T06:48:24.799Z,102038.64
2018-12-27T06:50:50.567Z,102033.27
2018-12-27T06:53:16.337Z,102029.97
2018-12-27T06:56:01.992Z,102030.74
2018-12-27T06:58:27.776Z,102030.74
2018-12-27T07:00:53.526Z,102029.52
2018-12-27T07:03:19.307Z,102021.83
2018-12-27T07:05:45.195Z,102028.62
2018-12-27T07:08:10.958Z,102035.90
2018-12-27T07:10:36.736Z,102034.41
2018-12-27T07:13:02.481Z,102026.87
2018-12-27T07:15:28.251Z,102025.52
2018-12-27T07:17:54.018Z,102030.38
2018-12-27T07:20:19.803Z,102023.63
2018-12-27T07:22:45.578Z,102021.92
2018-12-27T07:25:11.341Z,102017.75
2018-12-27T07:27:37.123Z,102019.24
2018-12-27T07:30:44.554Z,102021.30
2018-12-27T07:33:10.305Z,102011.05
2018-12-27T07:35:36.065Z,102018.89
2018-12-27T07:38:01.823Z,102013.88
2018-12-27T07:40:27.610Z,102017.95
2018-12-27T07:42:53.361Z,102013.88
2018-12-27T07:45:19.133Z,102015.22
2018-12-27T07:47:44.885Z,102016.62
2018-12-27T07:50:10.653Z,102013.46
2018-12-27T07:52:36.410Z,102007.11
2018-12-27T07:55:43.849Z,102010.63
2018-12-27T07:58:09.623Z,102005.62
2018-12-27T08:00:35.395Z,102021.71
2018-12-27T08:03:01.164Z,102024.19
2018-12-27T08:05:26.939Z,102027.08
2018-12-27T08:07:52.691Z,102026.72
2018-12-27T08:10:18.445Z,102025.68
2018-12-27T08:12:44.228Z,102031.31
2018-12-27T08:15:09.985Z,102025.44
2018-12-27T08:17:35.772Z,102021.56
2018-12-27T08:23:08.745Z,102021.98
2018-12-27T08:25:34.501Z,102023.05
2018-12-27T08:28:00.283Z,102019.89
2018-12-27T08:30:26.061Z,102015.36
2018-12-27T08:32:51.831Z,102021.08
2018-12-27T08:35:17.590Z,102017.06
2018-12-27T08:37:43.368Z,102007.05
2018-12-27T08:40:29.025Z,102003.37
2018-12-27T08:42:54.800Z,102003.37
2018-12-27T08:45:20.548Z,102008.12
2018-12-27T08:47:46.344Z,102003.80
2018-12-27T08:50:12.098Z,102010.58
2018-12-27T08:52:37.866Z,102012.55
2018-12-27T08:55:45.311Z,102011.92
2018-12-27T08:58:11.108Z,102019.50
2018-12-27T09:00:36.863Z,102013.27
2018-12-27T09:03:02.645Z,102015.11
2018-12-27T09:05:28.413Z,102011.21
2018-12-27T09:07:54.170Z,102022.80
2018-12-27T09:10:19.937Z,102025.34
2018-12-27T09:12:45.713Z,102025.48
2018-12-27T09:15:11.474Z,102021.31
2018-12-27T09:17:37.238Z,102017.41
2018-12-27T09:23:17.056Z,102025.45
2018-12-27T09:25:42.837Z,102026.80
2018-12-27T09:28:08.597Z,102023.13
2018-12-27T09:30:34.365Z,102022.56
2018-12-27T09:33:00.148Z,102027.72
2018-12-27T09:35:45.807Z,102026.80
2018-12-27T09:38:11.567Z,102026.80
2018-12-27T09:40:37.341Z,102028.07
2018-12-27T09:43:03.095Z,102019.58
2018-12-27T09:45:28.884Z,102029.84
2018-12-27T09:47:54.638Z,102022.91
2018-12-27T09:50:20.412Z,102021.66
2018-12-27T09:52:46.159Z,102020.58
2018-12-27T09:55:11.934Z,102026.03
2018-12-27T09:57:37.701Z,102029.55
2018-12-27T10:00:45.150Z,102027.58
2018-12-27T10:03:10.906Z,102026.16
2018-12-27T10:05:36.690Z,102028.22
2018-12-27T10:08:02.443Z,102021.86
2018-12-27T10:10:28.229Z,102024.19
2018-12-27T10:12:53.985Z,102028.92
2018-12-27T10:15:19.798Z,102030.34
2018-12-27T10:17:47.468Z,102025.53
2018-12-27T10:20:13.234Z,102022.02
2018-12-27T10:22:39.006Z,102023.08
2018-12-27T10:25:46.449Z,102023.36
2018-12-27T10:28:32.093Z,102023.63
2018-12-27T10:30:59.952Z,102014.72
2018-12-27T10:33:25.569Z,102003.98
2018-12-27T10:35:51.319Z,102009.94
2018-12-27T10:38:17.099Z,102012.32
2018-12-27T10:40:42.851Z,102011.20
2018-12-27T10:43:08.621Z,102009.16
2018-12-27T10:45:34.377Z,102012.63
2018-12-27T10:48:00.151Z,102008.80
2018-12-27T10:50:25.926Z,102011.48
2018-12-27T10:52:51.696Z,102015.87
2018-12-27T10:55:17.453Z,102014.22
2018-12-27T10:57:43.255Z,102017.13
2018-12-27T11:00:50.687Z,102010.63
2018-12-27T11:03:16.481Z,102016.55
2018-12-27T11:05:48.411Z,102014.45
2018-12-27T11:08:09.903Z,102010.83
2018-12-27T11:10:35.672Z,102009.41
2018-12-27T11:13:01.468Z,102000.72
2018-12-27T11:15:27.243Z,102004.97
2018-12-27T11:17:53.045Z,101991.20
2018-12-27T11:20:18.802Z,101985.67
2018-12-27T11:22:44.559Z,101984.61
2018-12-27T11:25:10.337Z,101987.17
2018-12-27T11:27:36.298Z,101987.09
2018-12-27T11:30:02.270Z,101981.01
2018-12-27T11:32:28.027Z,101980.73
2018-12-27T11:34:53.808Z,101979.52
2018-12-27T11:37:19.581Z,101975.13
2018-12-27T11:39:45.354Z,101969.08
2018-12-27T11:42:11.206Z,101972.17
2018-12-27T11:44:37.034Z,101978.25
2018-12-27T11:47:02.840Z,101962.50
2018-12-27T11:49:28.834Z,101963.01
2018-12-27T11:51:54.595Z,101965.05
2018-12-27T11:54:40.264Z,101964.55
2018-12-27T11:57:06.012Z,101968.22
2018-12-27T11:59:31.794Z,101961.58
2018-12-27T12:02:39.241Z,101955.78
2018-12-27T12:05:46.702Z,101955.78
2018-12-27T12:08:12.477Z,101953.17
2018-12-27T12:10:38.244Z,101951.19
2018-12-27T12:13:04.003Z,101958.19
2018-12-27T12:15:29.772Z,101957.55
2018-12-27T12:17:55.535Z,101950.41
2018-12-27T12:20:21.315Z,101951.67
2018-12-27T12:22:47.082Z,101946.10
2018-12-27T12:25:12.869Z,101944.83
2018-12-27T12:27:38.623Z,101945.66
2018-12-27T12:30:46.059Z,101944.48
2018-12-27T12:33:11.819Z,101948.16
2018-12-27T12:35:37.598Z,101945.12
2018-12-27T12:38:03.347Z,101941.99
2018-12-27T12:40:29.136Z,101947.72
2018-12-27T12:42:54.888Z,101945.86
2018-12-27T12:45:20.642Z,101947.08
2018-12-27T12:47:46.422Z,101949.45
2018-12-27T12:50:12.228Z,101944.88
2018-12-27T12:52:39.233Z,101945.11
2018-12-27T12:55:05.674Z,101942.41
2018-12-27T12:57:31.459Z,101946.97
2018-12-27T12:59:57.211Z,101944.77
2018-12-27T13:02:22.981Z,101952.44
2018-12-27T13:04:48.740Z,101942.71
2018-12-27T13:07:14.506Z,101949.39
2018-12-27T13:09:40.265Z,101946.55
2018-12-27T13:12:06.037Z,101946.00
2018-12-27T13:14:31.793Z,101953.90
2018-12-27T13:16:57.606Z,101946.55
2018-12-27T13:19:23.356Z,101944.02
2018-12-27T13:21:49.103Z,101943.00
2018-12-27T13:24:14.897Z,101949.39
2018-12-27T13:26:40.649Z,101954.77
2018-12-27T13:29:06.420Z,101943.86
2018-12-27T13:31:32.178Z,101946.73
2018-12-27T13:33:57.948Z,101954.09
2018-12-27T13:36:25.523Z,101941.08
2018-12-27T13:38:51.407Z,101945.47
2018-12-27T13:41:17.169Z,101941.79
2018-12-27T13:43:42.938Z,101951.31
2018-12-27T13:46:08.719Z,101939.55
2018-12-27T13:48:34.509Z,101944.47
2018-12-27T13:51:20.169Z,101928.64
2018-12-27T13:53:45.938Z,101928.64
2018-12-27T13:56:11.704Z,101939.45
2018-12-27T13:58:37.495Z,101933.58
2018-12-27T14:01:03.250Z,101933.45
2018-12-27T14:03:29.042Z,101938.02
2018-12-27T14:05:54.793Z,101931.94
2018-12-27T14:08:20.549Z,101939.08
2018-12-27T14:10:46.311Z,101936.39
2018-12-27T14:13:12.097Z,101939.91
2018-12-27T14:15:37.896Z,101937.38
2018-12-27T14:18:03.653Z,101936.87
2018-12-27T14:20:29.421Z,101943.39
2018-12-27T14:22:55.189Z,101936.16
2018-12-27T14:25:20.961Z,101943.11
2018-12-27T14:27:46.756Z,101939.55
2018-12-27T14:30:12.521Z,101944.09
2018-12-27T14:32:38.300Z,101950.59
2018-12-27T14:35:04.167Z,101940.70
2018-12-27T14:37:29.947Z,101947.61
2018-12-27T14:39:55.723Z,101941.53
2018-12-27T14:42:21.748Z,101942.17
2018-12-27T14:44:49.167Z,101946.56
2018-12-27T14:47:14.951Z,101949.41
2018-12-27T14:49:40.727Z,101948.89
2018-12-27T14:52:06.478Z,101950.91
2018-12-27T14:54:32.241Z,101950.23
2018-12-27T14:56:59.074Z,101944.19
2018-12-27T14:59:25.778Z,101950.39
2018-12-27T15:01:51.529Z,101953.27
2018-12-27T15:04:17.286Z,101956.47
2018-12-27T15:06:47.262Z,101954.27
2018-12-27T15:09:10.706Z,101957.27
2018-12-27T15:11:36.467Z,101957.11
2018-12-27T15:14:02.236Z,101950.05
2018-12-27T15:16:28.008Z,101952.37
2018-12-27T15:18:53.779Z,101961.94
2018-12-27T15:21:19.548Z,101961.65
2018-12-27T15:23:45.299Z,101966.00
2018-12-27T15:26:11.071Z,101964.34
2018-12-27T15:28:36.826Z,101970.38
2018-12-27T15:31:02.590Z,101965.61
2018-12-27T15:33:28.367Z,101963.56
2018-12-27T15:35:54.153Z,101960.94
2018-12-27T15:38:19.905Z,101958.55
2018-12-27T15:40:45.675Z,101956.05
2018-12-27T15:43:11.431Z,101953.81
2018-12-27T15:45:37.199Z,101954.52
2018-12-27T15:48:02.958Z,101961.23
2018-12-27T15:50:28.741Z,101952.98
2018-12-27T15:52:54.501Z,101953.10
2018-12-27T15:55:20.285Z,101953.61
2018-12-27T15:57:46.058Z,101958.00
2018-12-27T16:00:11.830Z,101951.13
2018-12-27T16:02:37.616Z,101957.48
2018-12-27T16:05:03.484Z,101949.43
2018-12-27T16:07:29.252Z,101953.33
2018-12-27T16:09:55.015Z,101950.77
2018-12-27T16:12:20.790Z,101953.10
2018-12-27T16:14:46.541Z,101952.47
2018-12-27T16:17:12.322Z,101952.11
2018-12-27T16:19:38.098Z,101949.94
2018-12-27T16:22:03.866Z,101948.59
2018-12-27T16:24:29.631Z,101950.13
2018-12-27T16:26:55.406Z,101949.78
2018-12-27T16:29:21.182Z,101944.05
2018-12-27T16:31:46.950Z,101944.92
2018-12-27T16:34:12.709Z,101947.95
2018-12-27T16:36:38.485Z,101946.73
2018-12-27T16:39:45.924Z,101946.81
2018-12-27T16:42:11.698Z,101950.77
2018-12-27T16:44:37.448Z,101944.28
2018-12-27T16:47:03.228Z,101942.59
2018-12-27T16:49:28.974Z,101937.22
2018-12-27T16:51:54.740Z,101938.91
2018-12-27T16:54:20.497Z,101942.59
2018-12-27T16:56:46.260Z,101934.17
2018-12-27T16:59:12.060Z,101929.80
2018-12-27T17:01:37.813Z,101934.87
2018-12-27T17:04:03.597Z,101932.32
2018-12-27T17:06:29.375Z,101930.62
2018-12-27T17:08:55.145Z,101932.32
2018-12-27T17:11:20.951Z,101931.84
2018-12-27T17:13:46.706Z,101930.15
2018-12-27T17:16:12.464Z,101931.97
2018-12-27T17:18:38.328Z,101933.31
2018-12-27T17:21:04.090Z,101929.28
2018-12-27T17:23:29.860Z,101928.30
2018-12-27T17:25:55.616Z,101926.59
2018-12-27T17:28:21.382Z,101926.88
2018-12-27T17:30:47.144Z,101930.98
2018-12-27T17:33:12.931Z,101938.33
2018-12-27T17:35:38.684Z,101936.80
2018-12-27T17:38:04.469Z,101941.33
2018-12-27T17:40:30.236Z,101940.98
2018-12-27T17:42:56.001Z,101940.12
2018-12-27T17:45:21.758Z,101935.45
2018-12-27T17:47:47.529Z,101938.97
2018-12-27T17:50:13.282Z,101933.59
2018-12-27T17:52:39.059Z,101931.58
2018-12-27T17:55:04.813Z,101940.75
2018-12-27T17:57:30.595Z,101941.62
2018-12-27T17:59:56.374Z,101943.44
2018-12-27T18:02:22.140Z,101938.07
2018-12-27T18:04:47.902Z,101930.36
2018-12-27T18:07:13.670Z,101943.44
2018-12-27T18:09:39.440Z,101941.45
2018-12-27T18:12:05.399Z,101943.70
2018-12-27T18:14:31.179Z,101948.72
2018-12-27T18:16:56.950Z,101949.39
2018-12-27T18:19:22.757Z,101946.39
2018-12-27T18:21:48.510Z,101953.42
2018-12-27T18:24:14.296Z,101949.67
2018-12-27T18:26:40.082Z,101956.39
2018-12-27T18:29:05.870Z,101956.39
2018-12-27T18:31:31.621Z,101953.19
2018-12-27T18:33:57.394Z,101956.52
2018-12-27T18:36:23.180Z,101957.22
2018-12-27T18:38:48.954Z,101957.38
2018-12-27T18:41:14.710Z,101960.06
2018-12-27T18:46:12.082Z,101961.67
2018-12-27T18:48:37.848Z,101965.79
2018-12-27T18:51:03.610Z,101964.92
2018-12-27T18:53:29.380Z,101964.80
2018-12-27T18:55:55.139Z,101973.56
2018-12-27T18:58:20.924Z,101970.02
2018-12-27T19:00:47.186Z,101969.53
2018-12-27T19:03:12.928Z,101976.92
2018-12-27T19:05:38.707Z,101977.28
2018-12-27T19:08:04.498Z,101974.55
2018-12-27T19:10:30.246Z,101972.54
2018-12-27T19:13:15.898Z,101971.55
2018-12-27T19:16:01.544Z,101972.54
2018-12-27T19:18:27.358Z,101974.59
2018-12-27T19:21:34.798Z,101979.25
2018-12-27T19:24:00.787Z,101975.93
2018-12-27T19:26:26.549Z,101983.98
2018-12-27T19:28:52.323Z,101972.77
2018-12-27T19:34:25.306Z,101973.67
2018-12-27T19:36:51.078Z,101972.61
2018-12-27T19:39:16.846Z,101974.92
2018-12-27T19:41:42.607Z,101971.69
2018-12-27T19:44:08.399Z,101968.30
2018-12-27T19:46:34.159Z,101966.16
2018-12-27T19:48:59.936Z,101967.31
2018-12-27T19:51:25.713Z,101966.70
2018-12-27T19:53:51.472Z,101961.05
2018-12-27T19:56:17.254Z,101957.75
2018-12-27T19:58:43.044Z,101962.48
2018-12-27T20:01:08.935Z,101964.84
2018-12-27T20:03:34.767Z,101959.89
2018-12-27T20:06:00.534Z,101964.55
2018-12-27T20:08:26.292Z,101962.86
2018-12-27T20:10:52.078Z,101959.11
2018-12-27T20:13:17.836Z,101963.20
2018-12-27T20:15:43.617Z,101958.48
2018-12-27T20:18:09.403Z,101957.92
2018-12-27T20:20:35.181Z,101960.13
2018-12-27T20:23:00.943Z,101969.37
2018-12-27T20:25:26.823Z,101962.50
2018-12-27T20:27:52.574Z,101962.66
2018-12-27T20:30:18.344Z,101959.47
2018-12-27T20:32:44.123Z,101961.95
2018-12-27T20:35:09.900Z,101967.06
2018-12-27T20:37:35.668Z,101966.35
2018-12-27T20:40:01.441Z,101962.13
2018-12-27T20:42:27.199Z,101970.66
2018-12-27T20:44:52.966Z,101977.38
2018-12-27T20:47:18.729Z,101967.66
2018-12-27T20:49:44.511Z,101962.61
2018-12-27T20:52:10.274Z,101954.14
2018-12-27T20:54:36.039Z,101943.69
2018-12-27T20:57:01.814Z,101954.43
2018-12-27T20:59:27.608Z,101957.91
2018-12-27T21:01:53.374Z,101955.22
2018-12-27T21:04:19.140Z,101953.17
2018-12-27T21:06:44.929Z,101954.87
2018-12-27T21:09:10.690Z,101963.55
2018-12-27T21:11:36.459Z,101959.88
2018-12-27T21:14:02.218Z,101965.53
2018-12-27T21:16:28.012Z,101974.77
2018-12-27T21:18:53.760Z,101971.61
2018-12-27T21:21:19.532Z,101969.63
2018-12-27T21:23:45.282Z,101962.61
2018-12-27T21:26:11.057Z,101964.74
2018-12-27T21:28:36.816Z,101960.16
2018-12-27T21:31:02.595Z,101957.28
2018-12-27T21:33:28.346Z,101960.32
2018-12-27T21:35:54.108Z,101965.18
2018-12-27T21:38:21.579Z,101963.91
2018-12-27T21:40:47.569Z,101963.05
2018-12-27T21:43:13.326Z,101957.04
2018-12-27T21:45:39.097Z,101959.53
2018-12-27T21:48:04.869Z,101956.56
2018-12-27T21:50:50.528Z,101952.89
2018-12-27T21:53:16.308Z,101961.27
2018-12-27T21:55:42.098Z,101965.65
2018-12-27T21:58:07.869Z,101976.11
2018-12-27T22:00:33.638Z,101961.27
2018-12-27T22:02:59.413Z,101962.13
2018-12-27T22:05:25.161Z,101958.94
2018-12-27T22:07:50.922Z,101952.09
2018-12-27T22:10:16.701Z,101949.89
2018-12-27T22:12:42.469Z,101946.56
2018-12-27T22:15:08.293Z,101945.73
2018-12-27T22:17:34.057Z,101950.88
2018-12-27T22:19:59.821Z,101948.42
2018-12-27T22:22:25.602Z,101940.20
2018-12-27T22:24:51.365Z,101936.81
2018-12-27T22:27:17.150Z,101944.75
2018-12-27T22:29:42.980Z,101943.17
2018-12-27T22:32:08.772Z,101946.09
2018-12-27T22:34:34.587Z,101941.91
2018-12-27T22:37:00.360Z,101931.00
2018-12-27T22:39:26.108Z,101939.73
2018-12-27T22:41:51.913Z,101934.99
2018-12-27T22:44:17.671Z,101929.63
2018-12-27T22:46:43.429Z,101928.83
2018-12-27T22:49:09.266Z,101916.59
2018-12-27T22:51:35.022Z,101913.70
2018-12-27T22:54:00.791Z,101919.78
2018-12-27T22:56:26.552Z,101921.61
2018-12-27T22:58:52.334Z,101921.13
2018-12-27T23:01:18.085Z,101912.43
2018-12-27T23:03:43.848Z,101906.06
2018-12-27T23:06:09.618Z,101909.52
2018-12-27T23:08:35.398Z,101905.30
2018-12-27T23:11:01.159Z,101909.52
2018-12-27T23:13:26.943Z,101912.91
2018-12-27T23:15:52.710Z,101914.25
2018-12-27T23:18:18.484Z,101912.36
2018-12-27T23:20:44.240Z,101917.64
2018-12-27T23:23:10.010Z,101922.18
2018-12-27T23:25:35.765Z,101925.00
2018-12-27T23:28:01.533Z,101932.25
2018-12-27T23:30:27.300Z,101930.36
2018-12-27T23:32:53.061Z,101935.26
2018-12-27T23:35:18.937Z,101923.88
2018-12-27T23:37:44.688Z,101933.56
2018-12-27T23:40:10.454Z,101928.73
2018-12-27T23:42:36.220Z,101926.76
2018-12-27T23:45:02.089Z,101932.77
2018-12-27T23:47:27.839Z,101930.44
2018-12-27T23:49:53.613Z,101929.80
2018-12-27T23:52:19.385Z,101926.13
2018-12-27T23:54:45.146Z,101921.38
2018-12-27T23:57:10.897Z,101929.00
2018-12-27T23:59:36.684Z,101930.98
